Time;durP1;ratioP1;P1;durP2;ratioP2;P2;SDS_P1;SDS_P2;PMS_P1;PMS_P2;Temp;Humidity;BMP_temperature;BMP_pressure;BME280_temperature;BME280_humidity;BME280_pressure;Samples;Min_cycle;Max_cycle;Signal;HPM_P1;HPM_P2
2023/07/13 00:01:27;;;;;;;3.30;1.50;;;21.20;50.10;;;;;;5094601;28;20505;-54
2023/07/13 00:03:55;;;;;;;7.20;1.40;;;21.20;50.10;;;;;;5094302;28;20554;-54
2023/07/13 00:06:22;;;;;;;4.73;1.20;;;21.10;50.60;;;;;;5094481;28;20447;-54
2023/07/13 00:08:49;;;;;;;6.30;1.80;;;21.20;51.00;;;;;;5094432;28;20443;-54
2023/07/13 00:11:17;;;;;;;7.57;2.00;;;21.10;50.40;;;;;;5094046;28;20937;-54
2023/07/13 00:13:44;;;;;;;5.80;1.50;;;21.00;50.90;;;;;;5094263;28;20470;-54
2023/07/13 00:16:13;;;;;;;3.27;1.80;;;21.00;51.10;;;;;;5094270;28;20857;-54
2023/07/13 00:18:40;;;;;;;3.10;1.90;;;21.00;51.10;;;;;;5093992;28;20459;-54
2023/07/13 00:21:08;;;;;;;4.83;1.30;;;21.00;51.30;;;;;;5094175;28;20443;-54
2023/07/13 00:23:37;;;;;;;3.23;1.20;;;20.90;51.80;;;;;;5094001;28;20559;-54
2023/07/13 00:26:05;;;;;;;6.77;1.40;;;20.90;51.80;;;;;;5094013;28;20477;-54
2023/07/13 00:28:32;;;;;;;10.20;1.33;;;20.90;51.30;;;;;;5094905;28;20463;-54
2023/07/13 00:30:59;;;;;;;7.67;1.57;;;20.90;51.50;;;;;;5093915;28;20447;-54
2023/07/13 00:33:28;;;;;;;5.00;1.33;;;20.80;51.70;;;;;;5093624;28;20476;-54
2023/07/13 00:35:55;;;;;;;9.53;2.10;;;20.80;51.80;;;;;;5093828;28;20455;-54
2023/07/13 00:38:24;;;;;;;5.10;1.37;;;20.80;52.00;;;;;;5093878;28;20821;-54
2023/07/13 00:40:50;;;;;;;7.10;2.30;;;20.80;52.30;;;;;;5093863;28;20451;-54
2023/07/13 00:43:19;;;;;;;12.23;1.90;;;20.70;52.40;;;;;;5093721;28;20471;-54
2023/07/13 00:46:14;;;;;;;4.23;1.37;;;20.70;52.70;;;;;;5093696;28;20480;-54
2023/07/13 00:48:44;;;;;;;8.37;1.63;;;20.70;52.50;;;;;;5093687;28;20428;-54
2023/07/13 00:51:12;;;;;;;7.43;1.63;;;20.70;52.50;;;;;;5093697;28;20473;-54
2023/07/13 00:53:41;;;;;;;9.60;1.80;;;20.70;52.70;;;;;;5093316;28;20507;-54
2023/07/13 00:56:07;;;;;;;5.77;1.30;;;20.70;52.70;;;;;;5093617;28;20452;-54
2023/07/13 00:58:35;;;;;;;4.87;1.83;;;20.70;52.90;;;;;;5093360;28;20447;-54
2023/07/13 01:01:02;;;;;;;6.33;1.57;;;20.70;53.00;;;;;;5093589;28;20447;-54
2023/07/13 01:03:29;;;;;;;12.37;1.43;;;20.60;53.00;;;;;;5093204;28;21016;-54
2023/07/13 01:05:56;;;;;;;4.87;1.70;;;20.60;53.10;;;;;;5093609;28;20471;-55
2023/07/13 01:08:23;;;;;;;7.20;1.50;;;20.60;53.30;;;;;;5093416;28;20443;-54
2023/07/13 01:10:55;;;;;;;5.70;2.10;;;20.50;53.40;;;;;;5093495;28;20444;-55
2023/07/13 01:13:23;;;;;;;6.40;1.57;;;20.40;53.50;;;;;;5093377;28;20491;-54
2023/07/13 01:15:51;;;;;;;4.10;1.23;;;20.40;53.80;;;;;;5093460;28;20521;-55
2023/07/13 01:18:20;;;;;;;5.03;1.73;;;20.40;53.80;;;;;;5093164;28;20458;-55
2023/07/13 01:20:52;;;;;;;5.53;1.60;;;20.30;54.00;;;;;;5093360;28;20431;-55
2023/07/13 01:23:19;;;;;;;4.03;1.13;;;20.20;54.20;;;;;;5092869;28;20879;-55
2023/07/13 01:25:46;;;;;;;7.67;1.73;;;20.10;54.50;;;;;;5093164;28;20480;-54
2023/07/13 01:28:13;;;;;;;8.40;1.60;;;20.10;54.90;;;;;;5093152;28;20538;-55
2023/07/13 01:30:41;;;;;;;7.53;1.87;;;20.00;55.10;;;;;;5093050;28;20933;-55
2023/07/13 01:33:09;;;;;;;13.57;1.90;;;20.00;55.30;;;;;;5093147;28;20464;-55
2023/07/13 01:35:36;;;;;;;9.97;1.83;;;20.00;55.30;;;;;;5093434;28;20436;-55
2023/07/13 01:38:05;;;;;;;6.27;1.63;;;19.90;55.30;;;;;;5093237;28;20880;-55
2023/07/13 01:40:32;;;;;;;8.40;1.60;;;20.00;55.50;;;;;;5093145;28;20542;-55
2023/07/13 01:42:59;;;;;;;5.87;1.70;;;19.90;55.70;;;;;;5092802;28;20467;-55
2023/07/13 01:45:26;;;;;;;12.77;1.80;;;19.90;56.20;;;;;;5093065;28;20480;-55
2023/07/13 01:47:53;;;;;;;6.60;2.10;;;19.90;56.00;;;;;;5093121;28;20839;-55
2023/07/13 01:50:20;;;;;;;9.83;2.00;;;19.90;56.10;;;;;;5093096;28;20454;-55
2023/07/13 01:52:46;;;;;;;9.73;1.80;;;19.80;56.10;;;;;;5092879;28;20479;-55
2023/07/13 01:55:14;;;;;;;5.83;1.63;;;19.80;56.20;;;;;;5092962;28;20439;-55
2023/07/13 01:57:41;;;;;;;9.27;1.57;;;19.80;56.50;;;;;;5092935;28;20447;-55
2023/07/13 02:00:11;;;;;;;12.87;1.87;;;19.80;56.50;;;;;;5092957;28;20444;-55
2023/07/13 02:02:37;;;;;;;9.60;1.80;;;19.80;56.70;;;;;;5092565;28;21007;-55
2023/07/13 02:05:05;;;;;;;5.23;1.70;;;19.80;56.80;;;;;;5095083;28;20479;-55
2023/07/13 02:07:31;;;;;;;10.80;2.00;;;19.70;56.80;;;;;;5096693;28;20449;-55
2023/07/13 02:09:58;;;;;;;7.63;1.67;;;19.70;57.10;;;;;;5096565;28;20451;-55
2023/07/13 02:12:26;;;;;;;6.60;1.97;;;19.70;57.50;;;;;;5096508;28;20471;-55
2023/07/13 02:14:53;;;;;;;5.87;1.50;;;19.70;57.50;;;;;;5096519;28;20513;-55
2023/07/13 02:17:19;;;;;;;8.70;3.23;;;19.70;57.70;;;;;;5096502;28;20447;-55
2023/07/13 02:19:46;;;;;;;6.43;1.53;;;19.60;58.10;;;;;;5096056;28;20467;-55
2023/07/13 02:22:14;;;;;;;6.70;1.60;;;19.60;58.40;;;;;;5096341;28;20827;-55
2023/07/13 02:24:40;;;;;;;3.13;1.80;;;19.50;58.20;;;;;;5096282;28;20479;-55
2023/07/13 02:27:07;;;;;;;3.87;1.40;;;19.50;58.30;;;;;;5096278;28;20447;-55
2023/07/13 02:29:35;;;;;;;4.67;1.10;;;19.50;58.80;;;;;;5096216;28;20443;-55
2023/07/13 02:32:02;;;;;;;6.70;1.60;;;19.40;59.00;;;;;;5096204;28;20439;-55
2023/07/13 02:34:30;;;;;;;3.97;1.50;;;19.40;59.20;;;;;;5096087;28;20464;-55
2023/07/13 02:36:57;;;;;;;4.03;1.50;;;19.30;59.50;;;;;;5096009;28;20444;-55
2023/07/13 02:39:24;;;;;;;6.13;1.70;;;19.30;59.50;;;;;;5096021;28;20450;-55
2023/07/13 02:41:50;;;;;;;5.90;2.20;;;19.30;59.60;;;;;;5096091;28;20448;-55
2023/07/13 02:44:17;;;;;;;13.60;1.87;;;19.30;59.90;;;;;;5096087;28;20467;-55
2023/07/13 02:46:45;;;;;;;3.13;1.77;;;19.30;59.80;;;;;;5096045;28;20448;-55
2023/07/13 02:49:12;;;;;;;4.73;1.60;;;19.20;59.70;;;;;;5095912;28;20517;-55
2023/07/13 02:51:39;;;;;;;4.30;1.70;;;19.30;60.00;;;;;;5095927;28;20807;-55
2023/07/13 02:54:08;;;;;;;7.63;2.50;;;19.30;60.20;;;;;;5095799;28;20518;-55
2023/07/13 02:56:35;;;;;;;10.53;2.03;;;19.30;60.50;;;;;;5095727;28;20476;-55
2023/07/13 02:59:02;;;;;;;5.23;1.60;;;19.20;60.80;;;;;;5095478;28;20952;-55
2023/07/13 03:01:29;;;;;;;11.20;1.67;;;19.10;61.10;;;;;;5095649;28;20456;-55
2023/07/13 03:03:57;;;;;;;10.80;2.07;;;19.10;61.30;;;;;;5095641;28;20472;-55
2023/07/13 03:06:24;;;;;;;6.23;1.60;;;19.10;61.30;;;;;;5095524;28;20484;-55
2023/07/13 03:08:51;;;;;;;5.37;1.93;;;19.10;61.60;;;;;;5095512;28;20500;-55
2023/07/13 03:11:19;;;;;;;9.93;1.73;;;19.10;61.80;;;;;;5095150;28;20444;-55
2023/07/13 03:13:47;;;;;;;6.57;2.10;;;19.10;62.10;;;;;;5095059;28;20468;-55
2023/07/13 03:16:15;;;;;;;10.20;1.50;;;19.10;61.80;;;;;;5095299;28;20527;-55
2023/07/13 03:18:42;;;;;;;9.43;1.90;;;19.10;61.60;;;;;;5095225;28;20487;-55
2023/07/13 03:21:10;;;;;;;6.60;1.77;;;19.00;61.80;;;;;;5095264;28;20448;-55
2023/07/13 03:23:37;;;;;;;6.33;1.80;;;19.10;61.90;;;;;;5095208;28;20474;-55
2023/07/13 03:26:07;;;;;;;9.10;2.80;;;19.00;61.90;;;;;;5095162;28;20816;-55
2023/07/13 03:28:34;;;;;;;4.83;2.30;;;19.10;61.90;;;;;;5095145;28;20516;-55
2023/07/13 03:31:02;;;;;;;6.53;1.80;;;19.00;62.50;;;;;;5095107;28;20440;-55
2023/07/13 03:33:29;;;;;;;4.97;1.93;;;19.00;61.80;;;;;;5095001;28;20468;-55
2023/07/13 03:35:56;;;;;;;9.67;2.20;;;19.00;61.90;;;;;;5094979;28;20451;-55
2023/07/13 03:38:26;;;;;;;8.07;2.23;;;18.90;62.00;;;;;;5095019;28;20443;-54
2023/07/13 03:40:52;;;;;;;7.90;2.10;;;18.90;62.30;;;;;;5094880;28;20447;-54
2023/07/13 03:43:20;;;;;;;8.67;1.67;;;18.90;61.60;;;;;;5094748;28;20474;-54
2023/07/13 03:45:47;;;;;;;6.83;1.60;;;18.90;61.80;;;;;;5094760;28;20486;-55
2023/07/13 03:48:13;;;;;;;7.10;1.57;;;18.80;61.80;;;;;;5094705;28;20439;-55
2023/07/13 03:50:40;;;;;;;3.67;1.77;;;18.80;62.20;;;;;;5094702;28;20447;-54
2023/07/13 03:53:07;;;;;;;6.90;1.63;;;18.80;62.60;;;;;;5094575;28;20460;-54
2023/07/13 03:55:35;;;;;;;3.03;1.77;;;18.80;62.80;;;;;;5094684;28;20477;-54
2023/07/13 03:58:29;;;;;;;3.43;1.73;;;18.80;63.10;;;;;;5094591;28;20448;-54
2023/07/13 04:00:57;;;;;;;6.17;1.50;;;18.70;63.40;;;;;;5094560;28;20452;-55
2023/07/13 04:03:24;;;;;;;7.07;1.80;;;18.70;63.80;;;;;;5094182;28;20981;-55
2023/07/13 04:05:51;;;;;;;11.10;2.53;;;18.70;64.10;;;;;;5094954;28;20479;-55
2023/07/13 04:08:17;;;;;;;8.80;2.27;;;18.70;64.30;;;;;;5094668;28;20443;-55
2023/07/13 04:10:44;;;;;;;9.00;2.13;;;18.60;64.60;;;;;;5094308;28;20473;-55
2023/07/13 04:13:11;;;;;;;11.30;2.23;;;18.60;65.00;;;;;;5093974;28;20981;-55
2023/07/13 04:15:40;;;;;;;12.90;2.17;;;18.60;64.90;;;;;;5094171;28;20440;-55
2023/07/13 04:18:07;;;;;;;8.37;2.20;;;18.60;65.20;;;;;;5094016;28;20581;-55
2023/07/13 04:20:34;;;;;;;7.30;2.10;;;18.70;65.70;;;;;;5094238;28;20451;-54
2023/07/13 04:23:00;;;;;;;5.40;2.27;;;18.60;66.10;;;;;;5093773;28;20872;-55
2023/07/13 04:25:27;;;;;;;4.70;1.60;;;18.60;65.70;;;;;;5094042;28;20491;-55
2023/07/13 04:27:55;;;;;;;4.63;2.07;;;18.60;66.70;;;;;;5093521;28;20448;-55
2023/07/13 04:30:21;;;;;;;6.60;2.47;;;18.60;66.80;;;;;;5093755;28;20988;-55
2023/07/13 04:32:51;;;;;;;5.97;1.73;;;18.60;67.10;;;;;;5093861;28;20474;-54
2023/07/13 04:35:20;;;;;;;13.03;1.90;;;18.60;67.40;;;;;;5093951;28;20444;-55
2023/07/13 04:37:47;;;;;;;15.40;2.63;;;18.70;67.20;;;;;;5093818;28;20447;-55
2023/07/13 04:40:13;;;;;;;6.40;2.20;;;18.60;67.60;;;;;;5093922;28;20448;-55
2023/07/13 04:42:40;;;;;;;10.10;2.40;;;18.70;68.10;;;;;;5093734;28;20471;-55
2023/07/13 04:45:08;;;;;;;4.50;1.67;;;18.70;68.60;;;;;;5093678;28;20479;-55
2023/07/13 04:47:34;;;;;;;8.13;2.13;;;18.70;68.70;;;;;;5094523;28;20452;-55
2023/07/13 04:50:03;;;;;;;6.27;2.00;;;18.70;69.50;;;;;;5093734;28;20475;-55
2023/07/13 04:52:30;;;;;;;4.90;2.17;;;18.70;69.30;;;;;;5093254;28;20944;-55
2023/07/13 04:54:56;;;;;;;9.27;2.33;;;18.50;69.90;;;;;;5093266;28;20937;-55
2023/07/13 04:57:23;;;;;;;10.90;2.27;;;18.50;70.20;;;;;;5093243;28;20447;-55
2023/07/13 04:59:50;;;;;;;13.73;2.60;;;18.50;71.40;;;;;;5093551;28;20443;-55
2023/07/13 05:02:16;;;;;;;6.43;2.13;;;18.60;70.70;;;;;;5093408;28;20505;-55
2023/07/13 05:04:43;;;;;;;8.13;2.00;;;18.50;70.90;;;;;;5093198;28;20818;-55
2023/07/13 05:07:11;;;;;;;8.67;2.50;;;18.60;71.90;;;;;;5093404;28;20487;-55
2023/07/13 05:09:39;;;;;;;6.87;2.20;;;18.60;71.70;;;;;;5093453;28;20440;-55
2023/07/13 05:12:07;;;;;;;8.13;2.63;;;18.60;72.00;;;;;;5094280;28;20543;-55
2023/07/13 05:14:34;;;;;;;6.50;2.30;;;18.60;72.30;;;;;;5093388;28;20468;-55
2023/07/13 05:17:01;;;;;;;11.53;2.67;;;18.50;72.30;;;;;;5092983;28;20513;-55
2023/07/13 05:19:27;;;;;;;5.77;1.60;;;18.60;73.00;;;;;;5093046;28;20474;-55
2023/07/13 05:21:54;;;;;;;11.00;2.83;;;18.70;72.60;;;;;;5093226;28;20451;-55
2023/07/13 05:24:22;;;;;;;6.90;2.07;;;18.80;73.50;;;;;;5093163;28;20478;-55
2023/07/13 05:26:49;;;;;;;7.27;2.70;;;18.80;72.90;;;;;;5093155;28;20482;-55
2023/07/13 05:29:16;;;;;;;5.20;2.27;;;18.90;72.40;;;;;;5093206;28;20443;-55
2023/07/13 05:31:42;;;;;;;11.53;2.20;;;18.90;72.60;;;;;;5093260;28;20474;-55
2023/07/13 05:34:09;;;;;;;8.13;2.30;;;18.80;72.80;;;;;;5093114;28;20464;-55
2023/07/13 05:36:36;;;;;;;8.40;2.73;;;18.90;73.20;;;;;;5092860;28;20468;-55
2023/07/13 05:39:04;;;;;;;5.57;2.10;;;18.80;73.30;;;;;;5093677;28;20462;-55
2023/07/13 05:41:31;;;;;;;5.43;1.80;;;18.80;73.80;;;;;;5097173;28;20862;-55
2023/07/13 05:43:58;;;;;;;8.90;2.13;;;18.70;74.00;;;;;;5097043;28;20544;-55
2023/07/13 05:46:25;;;;;;;4.00;1.77;;;18.70;75.00;;;;;;5096991;28;20471;-55
2023/07/13 05:48:52;;;;;;;11.50;2.47;;;18.70;75.40;;;;;;5097170;28;20470;-55
2023/07/13 05:51:19;;;;;;;7.67;2.33;;;18.70;75.30;;;;;;5097205;28;20465;-55
2023/07/13 05:53:45;;;;;;;9.70;2.50;;;18.60;75.50;;;;;;5096528;28;20985;-55
2023/07/13 05:56:12;;;;;;;10.50;2.50;;;18.60;75.90;;;;;;5096635;28;20968;-55
2023/07/13 05:58:40;;;;;;;10.07;3.10;;;18.60;76.40;;;;;;5096934;28;20447;-55
2023/07/13 06:01:10;;;;;;;11.40;2.77;;;18.50;76.50;;;;;;5097036;28;20459;-55
2023/07/13 06:03:38;;;;;;;6.00;2.50;;;18.50;77.20;;;;;;5097828;28;20460;-55
2023/07/13 06:06:05;;;;;;;7.37;2.90;;;18.50;77.90;;;;;;5097014;28;20866;-55
2023/07/13 06:08:33;;;;;;;10.03;2.00;;;18.50;77.40;;;;;;5097249;28;20496;-55
2023/07/13 06:11:04;;;;;;;8.03;2.90;;;18.50;77.40;;;;;;5097526;28;20462;-55
2023/07/13 06:13:31;;;;;;;6.90;2.40;;;18.50;78.30;;;;;;5097186;28;20558;-55
2023/07/13 06:15:59;;;;;;;5.73;2.57;;;18.60;78.60;;;;;;5097075;28;20552;-55
2023/07/13 06:18:25;;;;;;;11.10;3.60;;;18.60;77.90;;;;;;5096673;28;20528;-55
2023/07/13 06:20:52;;;;;;;13.53;4.10;;;18.70;78.80;;;;;;5096901;28;20438;-55
2023/07/13 06:23:19;;;;;;;6.60;2.43;;;18.90;78.20;;;;;;5096515;28;20467;-55
2023/07/13 06:25:45;;;;;;;9.33;3.00;;;18.90;77.10;;;;;;5096504;28;20443;-55
2023/07/13 06:28:12;;;;;;;9.40;2.83;;;19.00;77.50;;;;;;5096515;28;20439;-55
2023/07/13 06:30:39;;;;;;;7.33;2.70;;;19.10;77.10;;;;;;5096542;28;20814;-55
2023/07/13 06:33:07;;;;;;;4.87;2.27;;;19.30;76.80;;;;;;5096325;28;20562;-55
2023/07/13 06:35:34;;;;;;;5.50;2.50;;;19.40;76.10;;;;;;5096375;28;20447;-54
2023/07/13 06:38:02;;;;;;;9.33;2.83;;;19.50;76.60;;;;;;5096755;28;20459;-54
2023/07/13 06:40:30;;;;;;;6.33;3.00;;;19.60;75.10;;;;;;5096417;28;20447;-55
2023/07/13 06:42:57;;;;;;;10.47;2.87;;;19.60;75.30;;;;;;5096240;28;20467;-55
2023/07/13 06:45:23;;;;;;;7.33;3.03;;;19.60;75.40;;;;;;5096968;28;20447;-55
2023/07/13 06:47:50;;;;;;;6.27;2.07;;;19.60;74.20;;;;;;5097868;28;20483;-55
2023/07/13 06:50:18;;;;;;;10.43;3.07;;;19.60;75.10;;;;;;5096508;28;20451;-55
2023/07/13 06:52:45;;;;;;;7.30;3.17;;;19.60;75.50;;;;;;5095944;28;20540;-55
2023/07/13 06:55:11;;;;;;;11.90;2.87;;;19.50;76.10;;;;;;5096027;28;20448;-55
2023/07/13 06:57:38;;;;;;;7.67;3.23;;;19.50;75.70;;;;;;5095770;28;20479;-55
2023/07/13 07:00:06;;;;;;;6.30;2.93;;;19.40;76.10;;;;;;5095453;28;21097;-55
2023/07/13 07:02:33;;;;;;;8.40;3.43;;;19.50;76.60;;;;;;5095677;28;20517;-55
2023/07/13 07:05:00;;;;;;;7.63;3.13;;;19.60;76.30;;;;;;5095738;28;20448;-55
2023/07/13 07:07:28;;;;;;;8.70;3.30;;;19.60;75.60;;;;;;5095348;28;20866;-55
2023/07/13 07:09:55;;;;;;;8.40;2.43;;;19.60;75.70;;;;;;5095598;28;20460;-55
2023/07/13 07:12:22;;;;;;;6.50;2.93;;;19.60;75.60;;;;;;5095520;28;20448;-55
2023/07/13 07:14:48;;;;;;;10.30;3.03;;;19.80;76.50;;;;;;5095474;28;20440;-55
2023/07/13 07:17:15;;;;;;;7.27;2.63;;;20.00;75.20;;;;;;5095373;28;20468;-55
2023/07/13 07:19:42;;;;;;;9.27;3.17;;;20.10;74.20;;;;;;5095091;28;20485;-55
2023/07/13 07:22:08;;;;;;;5.83;2.43;;;20.30;73.60;;;;;;5095356;28;20793;-55
2023/07/13 07:24:36;;;;;;;14.37;2.97;;;20.40;73.70;;;;;;5095204;28;20460;-55
2023/07/13 07:27:03;;;;;;;7.97;2.67;;;20.50;72.80;;;;;;5095144;28;20447;-55
2023/07/13 07:29:30;;;;;;;6.90;3.00;;;20.60;72.30;;;;;;5094914;28;20949;-55
2023/07/13 07:31:57;;;;;;;12.40;4.20;;;20.60;72.40;;;;;;5095162;28;20444;-55
2023/07/13 07:34:24;;;;;;;10.77;3.13;;;20.80;72.70;;;;;;5095049;28;20812;-55
2023/07/13 07:36:50;;;;;;;12.37;2.53;;;20.90;72.10;;;;;;5094614;28;20529;-55
2023/07/13 07:39:17;;;;;;;7.03;2.60;;;21.00;71.00;;;;;;5094892;28;20467;-55
2023/07/13 07:41:45;;;;;;;10.30;2.90;;;21.10;70.80;;;;;;5094995;28;20511;-55
2023/07/13 07:44:12;;;;;;;7.87;3.00;;;21.10;70.00;;;;;;5094772;28;20471;-55
2023/07/13 07:46:40;;;;;;;8.03;3.33;;;21.10;69.80;;;;;;5094715;28;20444;-55
2023/07/13 07:49:07;;;;;;;6.53;2.83;;;21.10;69.80;;;;;;5094776;28;20451;-55
2023/07/13 07:51:34;;;;;;;8.60;2.80;;;21.10;70.40;;;;;;5094531;28;20447;-55
2023/07/13 07:54:00;;;;;;;11.50;3.10;;;21.20;70.20;;;;;;5094614;28;20467;-55
2023/07/13 07:56:27;;;;;;;12.97;3.10;;;21.40;71.20;;;;;;5094555;28;20480;-55
2023/07/13 07:58:55;;;;;;;7.57;2.90;;;21.50;69.70;;;;;;5094548;28;20452;-55
2023/07/13 08:01:22;;;;;;;9.57;3.23;;;21.60;68.80;;;;;;5094580;28;20918;-55
2023/07/13 08:03:49;;;;;;;10.53;3.40;;;21.70;69.10;;;;;;5093894;28;20463;-56
2023/07/13 08:06:16;;;;;;;8.23;3.40;;;21.80;68.20;;;;;;5094202;28;20447;-55
2023/07/13 08:08:43;;;;;;;10.80;3.13;;;21.70;68.70;;;;;;5094375;28;20517;-55
2023/07/13 08:11:11;;;;;;;8.67;3.80;;;21.80;68.70;;;;;;5094337;28;20450;-55
2023/07/13 08:13:38;;;;;;;11.10;3.40;;;21.90;68.60;;;;;;5094376;28;20503;-55
2023/07/13 08:16:07;;;;;;;9.10;3.30;;;21.90;69.00;;;;;;5094159;28;20470;-55
2023/07/13 08:18:34;;;;;;;4.23;2.90;;;22.00;68.50;;;;;;5093481;28;20804;-55
2023/07/13 08:21:05;;;;;;;9.43;3.47;;;22.10;67.30;;;;;;5093907;28;20501;-55
2023/07/13 08:23:32;;;;;;;10.33;3.87;;;22.20;68.40;;;;;;5094123;28;20472;-55
2023/07/13 08:26:01;;;;;;;10.40;2.87;;;22.20;67.20;;;;;;5094088;28;20452;-55
2023/07/13 08:28:28;;;;;;;7.37;3.20;;;22.20;66.70;;;;;;5094115;28;20488;-55
2023/07/13 08:30:54;;;;;;;10.70;3.30;;;22.30;66.50;;;;;;5093719;28;20448;-55
2023/07/13 08:33:24;;;;;;;6.37;3.00;;;22.10;67.10;;;;;;5093896;28;20875;-55
2023/07/13 08:35:51;;;;;;;4.50;2.50;;;21.90;66.30;;;;;;5093667;28;20897;-55
2023/07/13 08:38:19;;;;;;;9.97;2.97;;;21.90;67.80;;;;;;5093821;28;20483;-55
2023/07/13 08:40:52;;;;;;;7.23;2.90;;;22.00;68.00;;;;;;5093483;28;20440;-55
2023/07/13 08:43:23;;;;;;;11.17;2.80;;;22.20;68.10;;;;;;5093457;28;21015;-55
2023/07/13 08:45:54;;;;;;;6.23;3.13;;;22.40;67.40;;;;;;5093656;28;20435;-55
2023/07/13 08:48:28;;;;;;;7.40;2.87;;;22.60;66.40;;;;;;5093773;28;20427;-55
2023/07/13 08:51:03;;;;;;;7.17;3.00;;;22.70;63.50;;;;;;5093785;28;20432;-55
2023/07/13 08:53:35;;;;;;;6.10;2.83;;;22.50;64.90;;;;;;5093690;28;20462;-55
2023/07/13 08:56:03;;;;;;;6.13;3.47;;;22.60;65.60;;;;;;5093529;28;20432;-55
2023/07/13 08:58:31;;;;;;;3.80;2.20;;;22.70;62.90;;;;;;5093385;28;20998;-55
2023/07/13 09:01:06;;;;;;;6.67;2.70;;;22.70;63.00;;;;;;5093465;28;20452;-55
2023/07/13 09:03:41;;;;;;;9.73;2.43;;;22.80;63.10;;;;;;5093494;28;20463;-55
2023/07/13 09:06:12;;;;;;;3.80;2.73;;;23.00;62.10;;;;;;5093567;28;20461;-55
2023/07/13 09:08:56;;;;;;;8.73;2.70;;;23.20;61.90;;;;;;5093609;28;20444;-55
2023/07/13 09:11:37;;;;;;;7.43;2.30;;;23.60;61.20;;;;;;5094346;28;20816;-54
2023/07/13 09:14:27;;;;;;;7.17;2.63;;;23.80;58.60;;;;;;5093740;28;20512;-54
2023/07/13 09:16:55;;;;;;;8.00;2.00;;;23.90;58.20;;;;;;5093608;28;20463;-54
2023/07/13 09:19:29;;;;;;;7.50;2.10;;;24.00;58.60;;;;;;5093341;28;20569;-54
2023/07/13 09:21:59;;;;;;;8.70;2.13;;;24.10;57.80;;;;;;5093664;28;20839;-54
2023/07/13 09:24:36;;;;;;;7.20;2.20;;;24.10;57.40;;;;;;5093094;28;20985;-54
2023/07/13 09:27:12;;;;;;;7.23;2.03;;;24.20;57.90;;;;;;5093448;28;20470;-54
2023/07/13 09:29:44;;;;;;;5.43;2.60;;;24.40;57.50;;;;;;5093234;28;20913;-55
2023/07/13 09:32:13;;;;;;;6.60;2.40;;;24.60;56.80;;;;;;5093567;28;20914;-54
2023/07/13 09:34:41;;;;;;;7.13;2.27;;;24.70;56.20;;;;;;5093103;28;20926;-54
2023/07/13 09:37:07;;;;;;;8.77;2.40;;;24.60;54.50;;;;;;5093468;28;20471;-55
2023/07/13 09:39:38;;;;;;;5.73;2.30;;;24.40;55.40;;;;;;5093265;28;20448;-55
2023/07/13 09:42:15;;;;;;;6.33;2.10;;;24.30;56.10;;;;;;5093347;28;20436;-55
2023/07/13 09:44:53;;;;;;;3.87;1.73;;;24.10;55.20;;;;;;5093249;28;20898;-55
2023/07/13 09:47:23;;;;;;;4.17;1.80;;;24.00;55.70;;;;;;5092863;28;20928;-54
2023/07/13 09:49:58;;;;;;;10.60;3.50;;;23.90;55.80;;;;;;5093271;28;20817;-55
2023/07/13 09:52:27;;;;;;;4.67;2.07;;;23.90;56.00;;;;;;5093055;28;20466;-55
2023/07/13 09:54:58;;;;;;;4.80;1.67;;;24.00;55.20;;;;;;5092763;28;20934;-56
2023/07/13 09:57:27;;;;;;;7.80;2.40;;;24.10;55.40;;;;;;5093388;28;20521;-55
2023/07/13 09:59:58;;;;;;;7.80;2.80;;;24.30;55.60;;;;;;5092864;28;20444;-55
2023/07/13 10:02:27;;;;;;;6.93;2.37;;;24.80;54.60;;;;;;5093081;28;20448;-55
2023/07/13 10:04:59;;;;;;;5.80;2.13;;;25.20;53.60;;;;;;5092715;28;20452;-55
2023/07/13 10:07:27;;;;;;;4.83;2.33;;;25.30;52.50;;;;;;5092790;28;20764;-55
2023/07/13 10:09:55;;;;;;;4.07;1.60;;;25.20;52.40;;;;;;5092821;28;20459;-55
2023/07/13 10:12:23;;;;;;;5.47;1.80;;;25.20;52.30;;;;;;5092869;28;20455;-55
2023/07/13 10:14:54;;;;;;;3.07;2.13;;;25.10;52.90;;;;;;5092889;28;20509;-55
2023/07/13 10:17:30;;;;;;;4.30;1.90;;;25.20;52.80;;;;;;5092980;28;20562;-55
2023/07/13 10:20:00;;;;;;;7.93;1.80;;;25.00;52.60;;;;;;5092633;28;20499;-55
2023/07/13 10:22:34;;;;;;;4.10;2.20;;;24.90;53.50;;;;;;5092385;28;20428;-55
2023/07/13 10:25:01;;;;;;;5.30;2.13;;;24.70;54.70;;;;;;5093377;28;20432;-55
2023/07/13 10:27:34;;;;;;;4.97;2.17;;;24.70;53.60;;;;;;5096430;28;20479;-55
2023/07/13 10:30:08;;;;;;;4.30;2.03;;;25.00;55.30;;;;;;5096135;28;20921;-55
2023/07/13 10:32:35;;;;;;;5.33;1.93;;;25.60;52.20;;;;;;5096148;28;20471;-56
2023/07/13 10:35:04;;;;;;;6.37;2.20;;;26.10;52.00;;;;;;5096257;28;20447;-55
2023/07/13 10:37:40;;;;;;;5.13;2.40;;;26.50;48.80;;;;;;5095909;28;20902;-55
2023/07/13 10:40:14;;;;;;;3.43;1.60;;;26.50;49.60;;;;;;5096191;28;20424;-56
2023/07/13 10:42:45;;;;;;;3.63;2.03;;;26.30;48.80;;;;;;5095833;28;20980;-55
2023/07/13 10:45:16;;;;;;;3.70;1.83;;;26.10;49.70;;;;;;5095911;28;20439;-55
2023/07/13 10:47:43;;;;;;;7.70;1.97;;;26.20;50.00;;;;;;5096046;28;20486;-55
2023/07/13 10:50:18;;;;;;;4.10;2.33;;;26.20;49.60;;;;;;5095975;28;20440;-53
2023/07/13 10:52:50;;;;;;;6.50;2.20;;;26.10;48.90;;;;;;5095782;28;20471;-55
2023/07/13 10:55:40;;;;;;;5.67;2.13;;;26.00;49.60;;;;;;5095750;28;20526;-56
2023/07/13 10:58:14;;;;;;;3.57;1.67;;;25.80;49.50;;;;;;5095738;28;20468;-55
2023/07/13 11:00:49;;;;;;;4.73;1.73;;;25.60;49.10;;;;;;5095882;28;20468;-54
2023/07/13 11:03:19;;;;;;;2.93;1.70;;;25.40;49.80;;;;;;5095666;28;20495;-55
2023/07/13 11:05:51;;;;;;;4.40;2.07;;;25.40;49.80;;;;;;5095892;28;20455;-55
2023/07/13 11:08:22;;;;;;;2.90;1.73;;;25.10;50.30;;;;;;5095690;28;20464;-55
2023/07/13 11:10:54;;;;;;;5.93;2.00;;;25.00;51.50;;;;;;5095822;28;20428;-55
2023/07/13 11:13:57;;;;;;;4.77;2.00;;;24.80;50.90;;;;;;5095476;28;20874;-54
2023/07/13 11:16:45;;;;;;;4.50;1.80;;;24.80;52.50;;;;;;5094968;28;20901;-54
2023/07/13 11:19:41;;;;;;;7.00;2.50;;;24.60;52.10;;;;;;5095063;28;20447;-54
2023/07/13 11:22:16;;;;;;;3.90;1.77;;;24.90;52.40;;;;;;5095100;28;20790;-54
2023/07/13 11:24:51;;;;;;;3.40;1.30;;;25.70;49.40;;;;;;5095362;28;20432;-54
2023/07/13 11:27:36;;;;;;;4.93;1.80;;;27.00;47.10;;;;;;5095244;28;20518;-54
2023/07/13 11:30:25;;;;;;;3.90;1.60;;;28.60;43.50;;;;;;5095297;28;20505;-54
2023/07/13 11:33:06;;;;;;;3.30;1.77;;;30.10;39.80;;;;;;5089259;28;20897;-53
2023/07/13 11:35:38;;;;;;;3.83;1.57;;;31.20;38.50;;;;;;5095131;28;20455;-54
2023/07/13 11:38:15;;;;;;;2.80;1.40;;;32.30;37.00;;;;;;5093873;28;20475;-54
2023/07/13 11:40:44;;;;;;;4.53;2.10;;;33.10;32.40;;;;;;5095076;28;20427;-55
2023/07/13 11:43:15;;;;;;;5.13;2.10;;;33.90;31.20;;;;;;5094935;28;20462;-55
2023/07/13 11:45:42;;;;;;;4.63;1.50;;;34.40;30.00;;;;;;5094805;28;20489;-54
2023/07/13 11:48:25;;;;;;;7.00;1.93;;;34.50;28.00;;;;;;5094880;28;20435;-54
2023/07/13 11:50:56;;;;;;;3.73;1.37;;;33.90;29.20;;;;;;5092928;28;20513;-56
2023/07/13 11:53:28;;;;;;;2.83;1.53;;;33.20;30.00;;;;;;5094949;28;20463;-54
2023/07/13 11:55:55;;;;;;;3.63;1.50;;;33.20;30.40;;;;;;5094755;28;20496;-54
2023/07/13 11:58:25;;;;;;;6.17;1.93;;;33.60;29.70;;;;;;5094559;28;20536;-54
2023/07/13 12:00:54;;;;;;;4.07;1.90;;;32.70;30.00;;;;;;5095558;28;20458;-54
2023/07/13 12:03:24;;;;;;;6.70;1.67;;;31.90;31.40;;;;;;5094570;28;20554;-54
2023/07/13 12:06:01;;;;;;;5.50;1.83;;;31.70;32.10;;;;;;5094291;28;20504;-54
2023/07/13 12:08:30;;;;;;;7.87;1.60;;;31.50;32.30;;;;;;5094588;28;20511;-53
2023/07/13 12:11:01;;;;;;;2.53;1.20;;;31.30;32.90;;;;;;5094163;28;20928;-54
2023/07/13 12:13:29;;;;;;;4.00;1.57;;;31.40;33.80;;;;;;5094341;28;20463;-54
2023/07/13 12:15:57;;;;;;;5.67;1.80;;;31.90;32.60;;;;;;5094388;28;20479;-54
2023/07/13 12:18:33;;;;;;;4.13;1.43;;;31.80;32.30;;;;;;5094372;28;20487;-53
2023/07/13 12:21:00;;;;;;;3.50;1.20;;;32.30;32.20;;;;;;5095167;28;20427;-54
2023/07/13 12:23:32;;;;;;;3.67;1.40;;;32.80;30.30;;;;;;5095848;28;20470;-55
2023/07/13 12:26:02;;;;;;;5.00;1.67;;;32.90;29.60;;;;;;5094920;28;20430;-55
2023/07/13 12:28:36;;;;;;;8.93;2.10;;;33.20;29.80;;;;;;5094666;28;20446;-55
2023/07/13 12:31:05;;;;;;;3.00;1.67;;;33.60;30.00;;;;;;5094222;28;20529;-55
2023/07/13 12:33:33;;;;;;;3.77;1.63;;;34.00;28.00;;;;;;5094192;28;20471;-53
2023/07/13 12:36:02;;;;;;;3.63;1.77;;;34.00;28.80;;;;;;5093909;28;20945;-54
2023/07/13 12:38:32;;;;;;;2.93;1.57;;;34.40;28.30;;;;;;5094005;28;20479;-55
2023/07/13 12:40:59;;;;;;;8.87;1.60;;;34.80;27.10;;;;;;5094000;28;20450;-55
2023/07/13 12:43:27;;;;;;;5.37;1.80;;;34.30;26.50;;;;;;5094043;28;20478;-55
2023/07/13 12:45:59;;;;;;;3.70;1.63;;;33.80;28.00;;;;;;5094016;28;20467;-54
2023/07/13 12:48:26;;;;;;;3.90;1.50;;;33.50;29.00;;;;;;5093428;28;20450;-55
2023/07/13 12:50:55;;;;;;;3.00;1.37;;;33.60;28.90;;;;;;5093789;28;20451;-55
2023/07/13 12:53:24;;;;;;;3.67;1.50;;;33.70;28.20;;;;;;5093664;28;20516;-54
2023/07/13 12:55:55;;;;;;;3.43;1.60;;;33.70;28.20;;;;;;5093730;28;20454;-55